• Join FlightAware (Why Join?)
  • Login
  • US Flag 
10:05PM EDT


 

Airport Tracker/Info


-or-


 

Live Flight TrackerFlight Track Log ✈ JZA7832 ✈ 30-Apr-2013 ✈ CYTS - CYYZ

Flight Track Log - Related Links

Times and Time Zones

All times are in EDT time to prevent confusion due to time zone crossing. See the JZA7832 flight status page for this flight to view local times or setup timezone preferences in your user account.

Time Position Orientation Groundspeed Altitude Reporting Facility
EDT Latitude Longitude Course Direction KTS MPH feet Rate Location/Type
08:18PM 48.3167 -81.3167 162° South 280 322 9,900  Level Toronto Center
08:19PM 48.1575 -81.5644 200° South  Level FlightAware Approximate
08:19PM 48.2333 -81.2833 165° South 270 311 11,700  Level Toronto Center
08:20PM 48.0768 -81.6093 200° South  Level FlightAware Approximate
08:20PM 48.1500 -81.2500 165° South 290 334 13,300  Level Toronto Center
08:21PM 47.9958 -81.5697 162° South  Level Estimated
08:21PM 48.0833 -81.2333 171° South 300 345 14,900  Level Toronto Center
08:22PM 47.9147 -81.5302 162° South  Level Estimated
08:22PM 47.9833 -81.2000 167° South 300 345 16,900  Level Toronto Center
08:23PM 47.8337 -81.4909 162° South  Level Estimated
08:23PM 47.9167 -81.1667 161° South 290 334 18,400  Level Toronto Center
08:24PM 47.7526 -81.4517 162° South  Level Estimated
08:24PM 47.8333 -81.1667 180° South 290 334 20,200  Level Toronto Center
08:25PM 47.7667 -81.1500 170° South 280 322 22,100 1,620 Climbing Toronto Center
08:26PM 47.6833 -81.1167 165° South 270 311 23,500 1,380 Climbing Toronto Center
08:27PM 47.6167 -81.0833 161° South 260 299 24,900 720 Climbing Toronto Center
08:28PM 47.5333 -81.0667 172° South 280 322 25,000  Climbing Toronto Center
08:29PM 47.4500 -81.0333 165° South 320 368 25,000  Level Toronto Center
08:30PM 47.3500 -81.0167 161° South 340 391 25,000  Level Toronto Center
08:31PM 47.3496 -81.0165 161° South  Level FlightAware Approximate
08:31PM 47.2500 -80.9833 167° South 350 403 25,000  Level Toronto Center
08:32PM 47.1667 -80.9500 165° South 360 414 25,000  Level Toronto Center
08:33PM 47.0667 -80.9333 174° South 360 414 25,000  Level Toronto Center
08:34PM 46.9833 -80.9000 165° South 360 414 25,000  Level Toronto Center
08:35PM 46.8833 -80.8833 174° South 360 414 25,000  Level Toronto Center
08:36PM 46.7833 -80.8500 167° South 360 414 25,000  Level Toronto Center
08:37PM 46.6833 -80.8167 167° South 360 414 25,000  Level Toronto Center
08:38PM 46.5833 -80.8000 173° South 360 414 25,000  Level Toronto Center
08:39PM 46.4833 -80.7667 167° South 360 414 25,000  Level Toronto Center
08:40PM 46.3833 -80.7500 173° South 360 414 25,000  Level Toronto Center
08:41PM 46.2833 -80.7167 167° South 360 414 25,000  Level Toronto Center
08:42PM 46.1833 -80.6833 167° South 360 414 25,000  Level Toronto Center
08:43PM 46.0833 -80.6333 161° South 370 426 25,000  Level Toronto Center
08:44PM 45.9833 -80.6167 173° South 360 414 25,000  Level Toronto Center
08:45PM 45.8833 -80.5833 167° South 370 426 25,000  Level Toronto Center
08:46PM 45.7833 -80.5667 173° South 370 426 25,000  Level Toronto Center
08:47PM 45.6833 -80.5333 167° South 370 426 25,000  Level Toronto Center
08:48PM 45.5833 -80.5167 173° South 370 426 25,000  Level Toronto Center
08:49PM 45.4833 -80.4833 167° South 370 426 25,000  Level Toronto Center
08:50PM 45.3833 -80.4667 173° South 370 426 25,000  Level Toronto Center
08:51PM 45.2833 -80.4333 167° South 360 414 25,000  Level Toronto Center
08:52PM 45.1833 -80.4167 173° South 360 414 25,000  Level Toronto Center
08:53PM 45.0833 -80.3833 167° South 360 414 25,000  Level Toronto Center
08:54PM 44.9833 -80.3667 173° South 360 414 25,000 -720 Level Toronto Center
08:55PM 44.8833 -80.3167 160° South 360 414 23,600 -1,380 Descending Toronto Center
08:56PM 44.7833 -80.3167 180° South 350 403 22,300 -1,320 Descending Toronto Center
08:57PM 44.7000 -80.2833 164° South 330 380 21,000 -1,380 Descending Toronto Center
08:58PM 44.6000 -80.2667 173° South 330 380 19,600 -1,500 Descending Toronto Center
08:59PM 44.5167 -80.2333 164° South 330 380 18,100 -1,380 Descending Toronto Center
09:00PM 44.4167 -80.2167 173° South 330 380 16,900 -1,260 Descending Toronto Center
09:01PM 44.3333 -80.2000 172° South 320 368 15,600 -1,320 Descending Toronto Center
09:02PM 44.2500 -80.1667 164° South 320 368 14,300 -1,260 Descending Toronto Center
09:03PM 44.1667 -80.1500 172° South 320 368 13,100 -1,260 Descending Toronto Center
09:04PM 44.0833 -80.0667 144° Southeast 320 368 11,800 -1,380 Descending Toronto Center
09:05PM 44.0167 -80.0000 144° Southeast 330 380 10,400 -1,260 Descending Toronto Center
09:06PM 43.9500 -79.9333 144° Southeast 310 357 9,300 -1,020 Descending Toronto Center
09:07PM 43.8833 -79.8667 144° Southeast 290 334 8,400 -660 Descending Toronto Center
09:08PM 43.8167 -79.8000 144° Southeast 280 322 8,000 -600 Descending Toronto Center
09:09PM 43.7667 -79.7333 136° Southeast 270 311 7,200 -1,200 Descending Toronto Center
09:10PM 43.7000 -79.7500 190° South 240 276 5,600 -1,140 Descending Toronto Center
09:11PM 43.6667 -79.8167 235° Southwest 220 253 5,000 -300 Descending Toronto Center
09:12PM 43.6167 -79.8667 216° Southwest 210 242 5,000  Level Toronto Center
09:13PM 43.5833 -79.9333 235° Southwest 200 230 5,000  Level Toronto Center
09:14PM 43.5500 -79.9833 227° Southwest 190 219 5,000  Level Toronto Center
09:15PM 43.5167 -80.0167 216° Southwest 190 219 5,000  Level Toronto Center
09:16PM 43.4667 -80.0167 180° South 180 207 5,000 -420 Level Toronto Center
09:17PM 43.4500 -79.9500 109° East 220 253 4,200 -540 Descending Toronto Center
09:18PM 43.5000 -79.8833 44° Northeast 230 265 4,000 -120 Descending Toronto Center
09:19PM 43.5333 -79.8167 55° Northeast 220 253 4,000 -540 Level Toronto Center
09:20PM 43.5833 -79.7667 36° Northeast 200 230 3,000 -1,020 Descending Toronto Center
09:21PM 43.6167 -79.7333 36° Northeast 190 219 2,000 -960 Descending Toronto Center
09:22PM 43.6500 -79.6833 47° Northeast 150 173 1,100 -720 Descending Toronto Center
09:23PM 43.6667 -79.6333 65° Northeast 110 127 600 -540 Descending Toronto Center